createdAt,value
2022-12-02T00:02:47.836Z,4.02
2022-12-02T00:06:51.985Z,4.15
2022-12-02T00:10:55.992Z,4.20
2022-12-02T00:15:22.347Z,4.06
2022-12-02T00:19:23.976Z,4.41
2022-12-02T00:23:25.451Z,4.66
2022-12-02T00:27:26.893Z,4.61
2022-12-02T00:31:28.608Z,4.55
2022-12-02T00:35:30.139Z,4.37
2022-12-02T00:39:31.673Z,4.41
2022-12-02T00:43:52.919Z,4.53
2022-12-02T00:47:54.384Z,4.72
2022-12-02T00:51:55.807Z,4.69
2022-12-02T00:55:57.296Z,4.71
2022-12-02T00:59:59.548Z,4.02
2022-12-02T01:04:01.008Z,4.07
2022-12-02T01:08:02.667Z,4.05
2022-12-02T01:12:04.382Z,4.43
2022-12-02T01:16:06.417Z,4.45
2022-12-02T01:20:08.471Z,4.72
2022-12-02T01:24:10.360Z,4.60
2022-12-02T01:28:12.275Z,4.16
2022-12-02T01:32:13.947Z,4.17
2022-12-02T01:36:15.523Z,4.55
2022-12-02T01:40:18.594Z,3.95
2022-12-02T01:44:20.084Z,3.98
2022-12-02T01:48:21.874Z,4.21
2022-12-02T01:52:23.537Z,4.08
2022-12-02T01:56:27.256Z,3.83
2022-12-02T02:00:34.052Z,4.04
2022-12-02T02:04:35.509Z,3.99
2022-12-02T02:08:37.012Z,4.63
2022-12-02T02:12:39.105Z,4.82
2022-12-02T02:16:40.982Z,4.01
2022-12-02T02:20:43.509Z,4.55
2022-12-02T02:24:45.036Z,4.23
2022-12-02T02:28:46.609Z,3.77
2022-12-02T02:32:49.380Z,3.60
2022-12-02T02:36:51.154Z,4.04
2022-12-02T02:40:54.428Z,4.08
2022-12-02T02:44:56.030Z,4.17
2022-12-02T02:48:58.122Z,4.74
2022-12-02T02:53:01.319Z,4.78
2022-12-02T02:57:03.600Z,4.40
2022-12-02T03:01:11.708Z,4.03
2022-12-02T03:05:13.674Z,4.65
2022-12-02T03:09:18.356Z,4.05
2022-12-02T03:13:20.469Z,4.64
2022-12-02T03:17:21.943Z,4.51
2022-12-02T03:21:25.926Z,4.88
2022-12-02T03:25:28.221Z,5.05
2022-12-02T03:29:30.377Z,4.48
2022-12-02T03:33:33.342Z,4.89
2022-12-02T03:37:34.964Z,4.71
2022-12-02T03:41:37.447Z,4.77
2022-12-02T03:45:41.368Z,4.30
2022-12-02T03:49:44.460Z,4.85
2022-12-02T03:53:46.138Z,4.81
2022-12-02T03:57:47.761Z,4.90
2022-12-02T04:01:49.498Z,4.65
2022-12-02T04:05:56.323Z,4.53
2022-12-02T04:09:58.060Z,4.76
2022-12-02T04:13:59.665Z,4.34
2022-12-02T04:18:01.235Z,4.27
2022-12-02T04:22:02.813Z,4.36
2022-12-02T04:26:04.323Z,4.49
2022-12-02T04:30:06.603Z,4.34
2022-12-02T04:34:08.075Z,4.12
2022-12-02T04:38:12.319Z,4.48
2022-12-02T04:42:14.063Z,4.23
2022-12-02T04:46:15.574Z,4.22
2022-12-02T04:50:17.280Z,4.17
2022-12-02T04:54:18.700Z,4.27
2022-12-02T04:58:20.154Z,4.33
2022-12-02T05:02:21.934Z,4.15
2022-12-02T05:06:23.386Z,4.44
2022-12-02T05:10:24.807Z,4.18
2022-12-02T05:14:26.266Z,4.67
2022-12-02T05:18:27.755Z,4.59
2022-12-02T05:22:29.243Z,4.48
2022-12-02T05:26:30.698Z,4.54
2022-12-02T05:30:32.252Z,4.26
2022-12-02T05:39:04.149Z,4.36
2022-12-02T05:43:23.573Z,3.99
2022-12-02T05:47:30.779Z,4.16
2022-12-02T05:51:32.299Z,3.78
2022-12-02T05:55:36.090Z,3.75
2022-12-02T05:59:38.527Z,3.76
2022-12-02T06:03:40.155Z,3.94
2022-12-02T06:07:41.701Z,3.93
2022-12-02T06:11:44.890Z,4.07
2022-12-02T06:15:47.175Z,3.82
2022-12-02T06:19:54.671Z,4.08
2022-12-02T06:23:58.941Z,3.83
2022-12-02T06:28:12.347Z,4.37
2022-12-02T06:32:18.422Z,4.13
2022-12-02T06:36:26.138Z,4.33
2022-12-02T06:40:32.941Z,4.14
2022-12-02T06:44:53.687Z,3.90
2022-12-02T06:48:57.019Z,4.22
2022-12-02T06:53:14.828Z,4.45
2022-12-02T06:57:19.804Z,3.81
2022-12-02T07:01:33.094Z,4.29
2022-12-02T07:05:34.609Z,3.93
2022-12-02T07:09:42.802Z,3.77
2022-12-02T07:13:44.292Z,3.94
2022-12-02T07:17:45.758Z,4.07
2022-12-02T07:21:53.247Z,3.85
2022-12-02T07:25:57.830Z,3.90
2022-12-02T07:30:00.937Z,4.27
2022-12-02T07:34:02.639Z,3.80
2022-12-02T07:38:04.161Z,4.29
2022-12-02T07:42:05.763Z,4.48
2022-12-02T07:46:07.363Z,4.87
2022-12-02T07:50:10.377Z,4.94
2022-12-02T07:54:11.805Z,4.81
2022-12-02T07:58:13.287Z,4.92
2022-12-02T08:02:14.744Z,5.06
2022-12-02T08:06:16.294Z,5.19
2022-12-02T08:10:18.174Z,4.08
2022-12-02T08:14:19.681Z,4.82
2022-12-02T08:18:21.142Z,4.65
2022-12-02T08:22:22.577Z,4.70
2022-12-02T08:26:24.069Z,4.94
2022-12-02T08:30:25.584Z,4.60
2022-12-02T08:34:27.039Z,5.08
2022-12-02T08:38:28.923Z,4.34
2022-12-02T08:42:30.560Z,4.37
2022-12-02T08:46:33.491Z,4.81
2022-12-02T08:50:34.965Z,5.21
2022-12-02T08:54:36.962Z,4.43
2022-12-02T08:58:38.536Z,4.99
2022-12-02T09:02:40.365Z,5.00
2022-12-02T09:06:41.928Z,5.20
2022-12-02T09:10:43.585Z,4.92
2022-12-02T09:14:45.268Z,4.99
2022-12-02T09:18:46.945Z,4.95
2022-12-02T09:22:48.412Z,4.80
2022-12-02T09:26:49.990Z,5.08
2022-12-02T09:30:52.004Z,4.45
2022-12-02T09:34:53.951Z,4.64
2022-12-02T09:38:55.798Z,4.61
2022-12-02T09:42:57.691Z,4.48
2022-12-02T09:46:59.348Z,4.87
2022-12-02T09:51:01.923Z,4.83
2022-12-02T09:55:07.737Z,4.42
2022-12-02T09:59:15.892Z,4.41
2022-12-02T10:03:21.052Z,4.48
2022-12-02T10:07:22.918Z,4.53
2022-12-02T10:11:30.234Z,4.72
2022-12-02T10:15:32.387Z,4.40
2022-12-02T10:19:33.972Z,4.78
2022-12-02T10:23:59.057Z,5.11
2022-12-02T10:28:01.052Z,5.38
2022-12-02T10:32:18.650Z,5.42
2022-12-02T10:36:41.127Z,4.82
2022-12-02T10:40:42.568Z,5.63
2022-12-02T10:44:45.997Z,5.59
2022-12-02T10:48:48.667Z,5.30
2022-12-02T10:52:50.303Z,5.51
2022-12-02T10:56:52.338Z,5.32
2022-12-02T11:00:53.895Z,5.29
2022-12-02T11:04:55.810Z,5.93
2022-12-02T11:09:17.269Z,5.32
2022-12-02T11:13:18.802Z,5.20
2022-12-02T11:17:48.556Z,5.03
2022-12-02T11:21:51.283Z,5.51
2022-12-02T11:25:56.026Z,6.04
2022-12-02T11:30:12.855Z,5.71
2022-12-02T11:34:26.011Z,5.09
2022-12-02T11:38:27.895Z,5.19
2022-12-02T11:42:35.253Z,6.04
2022-12-02T11:46:45.977Z,5.97
2022-12-02T11:50:47.468Z,5.89
2022-12-02T11:54:49.219Z,5.86
2022-12-02T11:58:51.546Z,6.09
2022-12-02T12:03:15.554Z,5.89
2022-12-02T12:07:17.109Z,5.44
2022-12-02T12:11:34.135Z,6.26
2022-12-02T12:15:52.182Z,6.19
2022-12-02T12:19:53.675Z,6.42
2022-12-02T12:23:55.300Z,6.35
2022-12-02T12:27:56.992Z,6.38
2022-12-02T12:31:58.955Z,5.88
2022-12-02T12:36:00.732Z,6.16
2022-12-02T12:40:02.221Z,5.92
2022-12-02T12:44:04.482Z,6.04
2022-12-02T12:48:06.258Z,5.98
2022-12-02T12:52:07.760Z,6.15
2022-12-02T12:56:09.338Z,6.02
2022-12-02T13:00:11.979Z,6.23
2022-12-02T14:27:58.494Z,6.18
2022-12-02T14:32:00.319Z,5.99
2022-12-02T14:36:04.389Z,6.05
2022-12-02T14:40:08.501Z,5.95
2022-12-02T14:44:10.091Z,6.13
2022-12-02T14:48:14.484Z,5.98
2022-12-02T14:52:16.018Z,6.00
2022-12-02T14:56:17.688Z,6.18
2022-12-02T15:00:22.709Z,6.19
2022-12-02T15:04:35.311Z,5.72
2022-12-02T15:13:43.272Z,5.91
2022-12-02T15:17:54.995Z,6.14
2022-12-02T15:22:01.390Z,5.79
2022-12-02T15:26:03.070Z,6.23
2022-12-02T15:30:05.090Z,6.18
2022-12-02T15:34:10.820Z,6.40
2022-12-02T15:38:12.358Z,6.43
2022-12-02T15:42:14.863Z,6.40
2022-12-02T15:46:33.170Z,6.32
2022-12-02T15:50:42.555Z,6.21
2022-12-02T15:54:43.952Z,6.34
2022-12-02T15:58:46.917Z,6.35
2022-12-02T16:02:54.319Z,6.19
2022-12-02T16:07:23.734Z,6.29
2022-12-02T16:11:25.419Z,6.16
2022-12-02T16:15:56.315Z,6.18
2022-12-02T16:20:07.220Z,6.22
2022-12-02T16:24:12.952Z,6.08
2022-12-02T16:28:15.012Z,5.85
2022-12-02T16:32:23.218Z,5.82
2022-12-02T16:36:24.798Z,5.75
2022-12-02T16:40:26.364Z,5.65
2022-12-02T16:44:27.986Z,5.74
2022-12-02T16:48:29.732Z,5.58
2022-12-02T16:52:31.361Z,5.62
2022-12-02T16:56:33.275Z,5.47
2022-12-02T17:00:34.699Z,5.43
2022-12-02T17:04:36.415Z,4.99
2022-12-02T17:08:43.383Z,5.22
2022-12-02T17:12:45.661Z,5.28
2022-12-02T17:16:47.153Z,5.29
2022-12-02T17:20:52.453Z,5.24
2022-12-02T17:24:56.797Z,5.57
2022-12-02T17:28:59.497Z,5.52
2022-12-02T17:33:02.605Z,5.21
2022-12-02T17:37:07.257Z,5.22
2022-12-02T17:41:12.729Z,5.43
2022-12-02T17:45:15.190Z,5.59
2022-12-02T17:49:17.403Z,5.06
2022-12-02T17:53:18.808Z,5.05
2022-12-02T17:57:25.399Z,5.02
2022-12-02T18:01:34.168Z,4.89
2022-12-02T18:05:35.811Z,5.10
2022-12-02T18:09:48.094Z,5.20
2022-12-02T18:13:51.668Z,5.00
2022-12-02T18:17:53.219Z,5.36
2022-12-02T18:21:54.760Z,5.40
2022-12-02T18:25:57.564Z,5.67
2022-12-02T18:29:59.785Z,5.63
2022-12-02T18:34:03.923Z,5.37
2022-12-02T18:38:05.508Z,4.89
2022-12-02T18:42:08.322Z,5.08
2022-12-02T18:46:11.423Z,5.41
2022-12-02T18:50:13.725Z,5.16
2022-12-02T18:54:15.358Z,5.00
2022-12-02T18:58:17.925Z,4.97
2022-12-02T19:02:20.063Z,4.84
2022-12-02T19:06:21.955Z,4.71
2022-12-02T19:10:24.211Z,4.57
2022-12-02T19:14:25.889Z,4.87
2022-12-02T19:18:27.416Z,4.95
2022-12-02T19:22:35.969Z,5.10
2022-12-02T19:26:37.361Z,4.97
2022-12-02T19:30:38.872Z,4.73
2022-12-02T19:34:40.567Z,4.86
2022-12-02T19:38:43.650Z,4.78
2022-12-02T19:42:46.758Z,5.25
2022-12-02T19:46:48.267Z,5.31
2022-12-02T19:50:50.561Z,5.09
2022-12-02T19:54:53.822Z,5.10
2022-12-02T19:58:55.607Z,5.24
2022-12-02T20:02:59.522Z,5.38
2022-12-02T20:07:01.486Z,5.19
2022-12-02T20:11:03.040Z,5.00
2022-12-02T20:15:06.286Z,4.96
2022-12-02T20:19:07.765Z,5.04
2022-12-02T20:23:09.875Z,5.15
2022-12-02T20:27:11.876Z,5.31
2022-12-02T20:31:19.767Z,5.65
2022-12-02T20:35:22.600Z,5.48
2022-12-02T20:39:30.310Z,5.37
2022-12-02T20:43:33.424Z,5.32
2022-12-02T20:47:35.586Z,4.95
2022-12-02T20:51:43.193Z,4.94
2022-12-02T20:55:45.466Z,5.01
2022-12-02T20:59:48.294Z,4.72
2022-12-02T21:03:49.815Z,5.18
2022-12-02T21:07:58.071Z,4.93
2022-12-02T21:12:02.614Z,5.06
2022-12-02T21:16:07.801Z,5.12
2022-12-02T21:20:17.809Z,5.11
2022-12-02T21:24:19.236Z,5.31
2022-12-02T21:28:32.265Z,4.89
2022-12-02T21:32:34.585Z,5.14
2022-12-02T21:36:37.289Z,5.05
2022-12-02T21:40:38.724Z,5.01
2022-12-02T21:44:40.237Z,5.15
2022-12-02T21:48:44.085Z,5.25
2022-12-02T21:52:52.524Z,5.31
2022-12-02T21:56:53.999Z,5.28
2022-12-02T22:01:17.510Z,5.29
2022-12-02T22:05:25.251Z,4.68
2022-12-02T22:09:31.301Z,4.95
2022-12-02T22:13:49.707Z,5.13
2022-12-02T22:17:51.534Z,4.90
2022-12-02T22:22:03.489Z,4.83
2022-12-02T22:26:10.042Z,4.76
2022-12-02T22:30:24.335Z,4.69
2022-12-02T22:34:25.739Z,4.47
2022-12-02T22:38:27.368Z,4.43
2022-12-02T22:42:29.251Z,4.30
2022-12-02T22:46:35.247Z,4.70
2022-12-02T22:50:36.738Z,4.14
2022-12-02T22:54:38.172Z,3.88
2022-12-02T22:58:39.673Z,4.15
2022-12-02T23:02:47.520Z,4.25
2022-12-02T23:06:49.297Z,4.00
2022-12-02T23:10:51.844Z,3.72
2022-12-02T23:15:04.771Z,3.62
2022-12-02T23:19:14.909Z,3.94
2022-12-02T23:23:51.014Z,3.95
2022-12-02T23:28:23.328Z,4.10
2022-12-02T23:33:12.823Z,3.68
2022-12-02T23:37:19.866Z,3.95
2022-12-02T23:41:32.287Z,3.83
2022-12-02T23:45:57.365Z,3.85
2022-12-02T23:50:27.956Z,3.79
2022-12-02T23:55:04.721Z,3.61
2022-12-02T23:59:26.910Z,3.93
